createdAt,value
2024-01-12T00:00:34.560Z,1.62
2024-01-12T00:04:45.038Z,1.70
2024-01-12T00:08:35.286Z,1.80
2024-01-12T00:12:24.810Z,1.86
2024-01-12T00:16:15.489Z,1.90
2024-01-12T00:20:05.969Z,1.90
2024-01-12T00:23:56.144Z,1.90
2024-01-12T00:27:46.965Z,1.80
2024-01-12T00:31:36.656Z,1.70
2024-01-12T00:35:08.742Z,1.70
2024-01-12T00:38:58.236Z,1.70
2024-01-12T00:42:47.832Z,1.74
2024-01-12T00:46:38.499Z,1.80
2024-01-12T00:50:28.166Z,1.90
2024-01-12T00:54:18.936Z,1.80
2024-01-12T00:58:08.902Z,1.68
2024-01-12T01:01:58.801Z,1.60
2024-01-12T01:05:49.286Z,1.60
2024-01-12T01:09:39.494Z,1.60
2024-01-12T01:13:28.918Z,1.60
2024-01-12T01:17:19.048Z,1.50
2024-01-12T01:21:08.736Z,1.40
2024-01-12T01:24:58.709Z,1.30
2024-01-12T01:28:48.774Z,1.30
2024-01-12T01:32:38.414Z,1.42
2024-01-12T01:36:28.642Z,1.50
2024-01-12T01:40:10.476Z,1.34
2024-01-12T01:44:01.102Z,1.22
2024-01-12T01:47:51.033Z,1.10
2024-01-12T01:51:29.017Z,1.10
2024-01-12T01:55:11.210Z,1.06
2024-01-12T01:59:01.055Z,0.94
2024-01-12T02:02:50.469Z,0.90
2024-01-12T02:06:42.717Z,0.88
2024-01-12T02:10:32.629Z,0.80
2024-01-12T02:14:22.777Z,0.70
2024-01-12T02:18:12.880Z,0.80
2024-01-12T02:22:02.324Z,0.80
2024-01-12T02:25:52.399Z,0.74
2024-01-12T02:29:42.027Z,0.70
2024-01-12T02:33:31.504Z,0.80
2024-01-12T02:37:20.989Z,0.90
2024-01-12T02:41:10.811Z,1.00
2024-01-12T02:45:00.533Z,1.10
2024-01-12T02:48:42.551Z,1.10
2024-01-12T02:52:32.602Z,1.08
2024-01-12T02:56:22.735Z,0.88
2024-01-12T03:00:12.576Z,0.80
2024-01-12T03:04:02.055Z,0.80
2024-01-12T03:07:52.656Z,0.90
2024-01-12T03:11:43.780Z,0.90
2024-01-12T03:15:33.986Z,0.90
2024-01-12T03:19:24.119Z,0.90
2024-01-12T03:23:14.763Z,1.00
2024-01-12T03:27:04.229Z,0.90
2024-01-12T03:30:54.622Z,0.90
2024-01-12T03:34:44.401Z,0.90
2024-01-12T03:38:34.051Z,1.00
2024-01-12T03:42:09.022Z,1.08
2024-01-12T03:45:58.486Z,1.16
2024-01-12T03:49:51.236Z,1.20
2024-01-12T03:53:42.410Z,1.30
2024-01-12T03:57:33.060Z,1.30
2024-01-12T04:01:22.415Z,1.40
2024-01-12T04:05:11.895Z,1.50
2024-01-12T04:09:01.989Z,1.50
2024-01-12T04:12:53.067Z,1.40
2024-01-12T04:16:43.517Z,1.30
2024-01-12T04:20:32.981Z,1.20
2024-01-12T04:24:22.758Z,1.30
2024-01-12T04:28:13.037Z,1.40
2024-01-12T04:32:05.406Z,1.62
2024-01-12T04:35:55.208Z,1.84
2024-01-12T04:39:45.638Z,1.80
2024-01-12T04:43:34.971Z,1.80
2024-01-12T04:47:23.215Z,1.68
2024-01-12T04:51:06.062Z,1.60
2024-01-12T04:54:34.596Z,1.54
2024-01-12T04:58:24.700Z,1.50
2024-01-12T05:02:14.400Z,1.50
2024-01-12T05:06:04.181Z,1.50
2024-01-12T05:09:53.749Z,1.60
2024-01-12T05:13:43.840Z,1.68
2024-01-12T05:17:36.769Z,1.80
2024-01-12T05:21:26.356Z,1.80
2024-01-12T05:25:14.816Z,1.90
2024-01-12T05:29:04.909Z,1.98
2024-01-12T05:32:54.887Z,2.00
2024-01-12T05:36:44.612Z,2.00
2024-01-12T05:40:34.668Z,2.00
2024-01-12T05:44:24.227Z,2.00
2024-01-12T05:48:13.763Z,2.00
2024-01-12T05:52:04.995Z,1.90
2024-01-12T05:55:55.261Z,1.70
2024-01-12T05:59:46.367Z,1.58
2024-01-12T06:03:35.914Z,1.40
2024-01-12T06:07:25.161Z,1.30
2024-01-12T06:11:15.449Z,1.30
2024-01-12T06:14:54.813Z,1.26
2024-01-12T06:18:45.114Z,1.30
2024-01-12T06:22:36.383Z,1.40
2024-01-12T06:26:26.594Z,1.50
2024-01-12T06:30:16.270Z,1.60
2024-01-12T06:34:06.053Z,1.68
2024-01-12T06:37:56.549Z,1.76
2024-01-12T06:41:46.193Z,1.80
2024-01-12T06:45:36.392Z,1.90
2024-01-12T06:49:26.801Z,1.92
2024-01-12T06:53:17.282Z,2.10
2024-01-12T06:56:44.668Z,2.10
2024-01-12T07:00:36.100Z,2.00
2024-01-12T07:04:26.124Z,2.00
2024-01-12T07:08:15.673Z,2.00
2024-01-12T07:12:05.157Z,2.02
2024-01-12T07:15:54.715Z,2.10
2024-01-12T07:20:05.668Z,2.14
2024-01-12T07:23:56.176Z,2.20
2024-01-12T07:27:47.271Z,2.30
2024-01-12T07:31:32.048Z,2.30
2024-01-12T07:35:22.171Z,2.40
2024-01-12T07:39:11.888Z,2.40
2024-01-12T07:43:01.490Z,2.40
2024-01-12T07:46:51.424Z,2.40
2024-01-12T07:50:42.282Z,2.40
2024-01-12T07:54:20.395Z,2.46
2024-01-12T07:58:10.174Z,2.50
2024-01-12T08:01:59.608Z,2.50
2024-01-12T08:05:53.313Z,2.50
2024-01-12T08:09:42.831Z,2.48
2024-01-12T08:13:32.925Z,2.50
2024-01-12T08:17:22.340Z,2.42
2024-01-12T08:21:13.552Z,2.40
2024-01-12T08:24:48.718Z,2.20
2024-01-12T08:28:39.453Z,2.00
2024-01-12T08:32:20.726Z,1.80
2024-01-12T08:35:44.510Z,1.70
2024-01-12T08:39:34.038Z,1.70
2024-01-12T08:43:23.661Z,1.60
2024-01-12T08:47:13.615Z,1.58
2024-01-12T08:51:04.807Z,1.60
2024-01-12T08:54:55.579Z,1.60
2024-01-12T08:58:43.809Z,1.60
2024-01-12T09:02:32.515Z,1.70
2024-01-12T09:06:23.236Z,1.78
2024-01-12T09:10:13.965Z,1.90
2024-01-12T09:14:04.245Z,2.00
2024-01-12T09:17:55.444Z,2.10
2024-01-12T09:21:46.583Z,2.20
2024-01-12T09:25:38.973Z,2.20
2024-01-12T09:29:27.997Z,2.20
2024-01-12T09:33:10.410Z,2.20
2024-01-12T09:37:00.755Z,2.30
2024-01-12T09:40:50.797Z,2.30
2024-01-12T09:44:44.940Z,2.38
2024-01-12T09:48:41.460Z,2.40
2024-01-12T09:52:22.780Z,2.40
2024-01-12T09:56:12.224Z,2.30
2024-01-12T10:00:02.030Z,2.30
2024-01-12T10:03:51.705Z,2.30
2024-01-12T10:07:28.267Z,2.30
2024-01-12T10:11:19.226Z,2.32
2024-01-12T10:15:08.909Z,2.40
2024-01-12T10:18:58.969Z,2.42
2024-01-12T10:22:48.730Z,2.48
2024-01-12T10:26:40.352Z,2.50
2024-01-12T10:30:30.049Z,2.60
2024-01-12T10:34:22.545Z,2.60
2024-01-12T10:38:12.743Z,2.56
2024-01-12T10:42:03.996Z,2.50
2024-01-12T10:45:54.538Z,2.40
2024-01-12T10:49:49.971Z,2.30
2024-01-12T10:53:40.289Z,2.30
2024-01-12T10:57:29.830Z,2.30
2024-01-12T11:01:02.158Z,2.32
2024-01-12T11:04:52.175Z,2.40
2024-01-12T11:08:41.920Z,2.46
2024-01-12T11:12:23.947Z,2.50
2024-01-12T11:16:13.325Z,2.50
2024-01-12T11:20:03.323Z,2.50
2024-01-12T11:23:54.949Z,2.50
2024-01-12T11:27:44.967Z,2.50
2024-01-12T11:31:34.603Z,2.54
2024-01-12T11:35:26.460Z,2.60
2024-01-12T11:39:21.331Z,2.62
2024-01-12T11:43:11.601Z,2.78
2024-01-12T11:47:02.278Z,2.80
2024-01-12T11:50:52.690Z,2.88
2024-01-12T11:54:43.261Z,2.90
2024-01-12T11:58:33.738Z,2.80
2024-01-12T12:02:23.251Z,2.78
2024-01-12T12:06:13.176Z,2.70
2024-01-12T12:09:47.899Z,2.70
2024-01-12T12:13:40.329Z,2.70
2024-01-12T12:17:33.600Z,2.70
2024-01-12T12:21:23.872Z,2.70
2024-01-12T12:25:14.499Z,2.70
2024-01-12T12:29:05.084Z,2.62
2024-01-12T12:32:54.669Z,2.60
2024-01-12T12:36:44.972Z,2.60
2024-01-12T12:40:36.515Z,2.60
2024-01-12T12:44:26.019Z,2.68
2024-01-12T12:48:16.301Z,2.60
2024-01-12T12:52:09.096Z,2.60
2024-01-12T12:55:50.233Z,2.60
2024-01-12T12:59:40.800Z,2.60
2024-01-12T13:03:32.575Z,2.50
2024-01-12T13:07:21.047Z,2.40
2024-01-12T13:10:43.146Z,2.40
2024-01-12T13:14:33.304Z,2.42
2024-01-12T13:18:23.037Z,2.46
2024-01-12T13:22:13.605Z,2.46
2024-01-12T13:26:04.172Z,2.44
2024-01-12T13:29:54.439Z,2.50
2024-01-12T13:33:46.221Z,2.50
2024-01-12T13:37:36.419Z,2.50
2024-01-12T13:41:28.103Z,2.40
2024-01-12T13:45:19.027Z,2.42
2024-01-12T13:49:08.928Z,2.44
2024-01-12T13:52:58.449Z,2.38
2024-01-12T13:56:47.357Z,2.28
2024-01-12T14:00:36.811Z,2.20
2024-01-12T14:04:26.265Z,2.12
2024-01-12T14:08:16.332Z,2.10
2024-01-12T14:12:08.374Z,2.10
2024-01-12T14:16:00.004Z,2.10
2024-01-12T14:19:49.527Z,2.10
2024-01-12T14:23:40.025Z,1.92
2024-01-12T14:27:29.597Z,1.70
2024-01-12T14:31:19.658Z,1.52
2024-01-12T14:35:10.194Z,1.26
2024-01-12T14:38:59.909Z,1.10
2024-01-12T14:42:48.961Z,1.00
2024-01-12T14:46:38.651Z,0.92
2024-01-12T14:50:28.751Z,0.84
2024-01-12T14:54:09.115Z,0.80
2024-01-12T14:57:58.642Z,0.70
2024-01-12T15:01:49.055Z,0.68
2024-01-12T15:05:38.653Z,0.50
2024-01-12T15:09:28.685Z,0.50
2024-01-12T15:13:18.363Z,0.50
2024-01-12T15:17:08.666Z,0.58
2024-01-12T15:20:59.027Z,0.32
2024-01-12T15:24:48.514Z,0.20
2024-01-12T15:28:38.541Z,0.30
2024-01-12T15:32:29.287Z,0.36
2024-01-12T15:36:19.257Z,0.28
2024-01-12T15:40:08.837Z,0.18
2024-01-12T15:43:59.429Z,0.10
2024-01-12T15:47:49.638Z,0.00
2024-01-12T15:51:39.678Z,-0.10
2024-01-12T15:55:30.229Z,-0.20
2024-01-12T15:59:20.310Z,-0.22
2024-01-12T16:03:09.964Z,-0.32
2024-01-12T16:06:59.698Z,-0.40
2024-01-12T16:10:42.212Z,-0.34
2024-01-12T16:14:32.292Z,-0.30
2024-01-12T16:18:21.851Z,-0.38
2024-01-12T16:22:11.329Z,-0.40
2024-01-12T16:26:02.433Z,-0.40
2024-01-12T16:29:52.578Z,-0.38
2024-01-12T16:33:43.462Z,-0.30
2024-01-12T16:37:33.068Z,-0.30
2024-01-12T16:41:10.726Z,-0.28
2024-01-12T16:44:56.029Z,-0.30
2024-01-12T16:48:49.254Z,-0.30
2024-01-12T16:52:41.654Z,-0.30
2024-01-12T16:56:32.848Z,-0.40
2024-01-12T17:00:23.752Z,-0.40
2024-01-12T17:04:13.343Z,-0.48
2024-01-12T17:08:02.738Z,-0.60
2024-01-12T17:11:52.835Z,-0.74
2024-01-12T17:15:42.866Z,-0.88
2024-01-12T17:19:31.279Z,-0.80
2024-01-12T17:23:21.547Z,-0.90
2024-01-12T17:27:12.861Z,-0.90
2024-01-12T17:31:02.404Z,-0.80
2024-01-12T17:34:50.526Z,-0.70
2024-01-12T17:38:40.184Z,-0.76
2024-01-12T17:42:30.312Z,-0.70
2024-01-12T17:46:10.616Z,-0.70
2024-01-12T17:50:00.816Z,-0.60
2024-01-12T17:53:51.034Z,-0.70
2024-01-12T17:57:33.249Z,-0.74
2024-01-12T18:01:22.925Z,-0.80
2024-01-12T18:05:13.680Z,-0.94
2024-01-12T18:09:03.211Z,-1.04
2024-01-12T18:12:44.532Z,-1.00
2024-01-12T18:16:35.452Z,-1.10
2024-01-12T18:20:26.580Z,-1.20
2024-01-12T18:24:16.527Z,-1.30
2024-01-12T18:28:06.200Z,-1.34
2024-01-12T18:31:55.760Z,-1.30
2024-01-12T18:35:47.960Z,-1.30
2024-01-12T18:39:37.468Z,-1.22
2024-01-12T18:43:28.508Z,-1.20
2024-01-12T18:47:18.677Z,-1.20
2024-01-12T18:51:09.129Z,-1.30
2024-01-12T18:54:58.588Z,-1.30
2024-01-12T18:58:49.598Z,-1.32
2024-01-12T19:02:40.921Z,-1.30
2024-01-12T19:06:32.426Z,-1.30
2024-01-12T19:10:22.013Z,-1.30
2024-01-12T19:14:12.518Z,-1.20
2024-01-12T19:18:03.543Z,-1.20
2024-01-12T19:21:57.572Z,-1.00
2024-01-12T19:25:47.621Z,-0.90
2024-01-12T19:29:38.523Z,-1.02
2024-01-12T19:33:28.364Z,-1.08
2024-01-12T19:37:16.539Z,-1.20
2024-01-12T19:40:51.000Z,-1.20
2024-01-12T19:44:41.797Z,-1.26
2024-01-12T19:48:31.982Z,-1.34
2024-01-12T19:52:22.322Z,-1.50
2024-01-12T19:56:12.896Z,-1.60
2024-01-12T20:00:02.701Z,-1.60
2024-01-12T20:03:52.857Z,-1.50
2024-01-12T20:07:42.366Z,-1.40
2024-01-12T20:11:32.485Z,-1.42
2024-01-12T20:15:22.612Z,-1.40
2024-01-12T20:19:13.922Z,-1.42
2024-01-12T20:23:04.199Z,-1.40
2024-01-12T20:26:50.225Z,-1.42
2024-01-12T20:30:40.928Z,-1.40
2024-01-12T20:34:31.712Z,-1.24
2024-01-12T20:38:21.953Z,-1.20
2024-01-12T20:42:12.235Z,-1.10
2024-01-12T20:46:01.647Z,-1.10
2024-01-12T20:49:51.789Z,-0.98
2024-01-12T20:53:41.996Z,-0.90
2024-01-12T20:57:31.440Z,-1.06
2024-01-12T21:01:22.835Z,-1.20
2024-01-12T21:05:12.385Z,-1.20
2024-01-12T21:09:02.555Z,-1.20
2024-01-12T21:12:52.639Z,-1.30
2024-01-12T21:16:42.077Z,-1.28
2024-01-12T21:20:31.959Z,-1.20
2024-01-12T21:24:23.208Z,-1.10
2024-01-12T21:28:12.777Z,-1.14
2024-01-12T21:32:03.736Z,-1.20
2024-01-12T21:35:53.799Z,-1.10
2024-01-12T21:39:45.874Z,-1.02
2024-01-12T21:43:35.286Z,-1.12
2024-01-12T21:47:27.154Z,-1.20
2024-01-12T21:51:17.956Z,-1.30
2024-01-12T21:55:08.190Z,-1.24
2024-01-12T21:58:57.618Z,-1.36
2024-01-12T22:02:48.077Z,-1.34
2024-01-12T22:06:37.608Z,-1.40
2024-01-12T22:10:27.225Z,-1.38
2024-01-12T22:14:17.377Z,-1.40
2024-01-12T22:18:06.922Z,-1.40
2024-01-12T22:21:56.337Z,-1.50
2024-01-12T22:25:45.530Z,-1.50
2024-01-12T22:29:35.480Z,-1.50
2024-01-12T22:33:25.405Z,-1.40
2024-01-12T22:37:11.133Z,-1.50
2024-01-12T22:41:01.170Z,-1.60
2024-01-12T22:44:51.929Z,-1.70
2024-01-12T22:48:41.511Z,-1.70
2024-01-12T22:52:31.723Z,-1.68
2024-01-12T22:56:24.477Z,-1.60
2024-01-12T23:00:15.156Z,-1.50
2024-01-12T23:03:57.219Z,-1.50
2024-01-12T23:07:47.390Z,-1.60
2024-01-12T23:11:45.769Z,-1.68
2024-01-12T23:15:35.248Z,-1.70
2024-01-12T23:19:25.498Z,-1.60
2024-01-12T23:23:15.827Z,-1.70
2024-01-12T23:27:07.312Z,-1.80
2024-01-12T23:30:52.994Z,-1.80
2024-01-12T23:34:43.357Z,-1.82
2024-01-12T23:38:35.244Z,-1.80
2024-01-12T23:42:25.078Z,-1.70
2024-01-12T23:46:14.517Z,-1.70
2024-01-12T23:50:05.194Z,-1.60
2024-01-12T23:53:55.643Z,-1.50
2024-01-12T23:57:46.279Z,-1.40
